Time;durP1;ratioP1;P1;durP2;ratioP2;P2;SDS_P1;SDS_P2;PMS_P1;PMS_P2;Temp;Humidity;BMP_temperature;BMP_pressure;BME280_temperature;BME280_humidity;BME280_pressure;Samples;Min_cycle;Max_cycle;Signal;HPM_P1;HPM_P2
2022/08/15 00:00:34;;;;;;;8.50;5.80;;;21.20;99.90;;;;;;5008036;28;20034;-57
2022/08/15 00:03:00;;;;;;;7.78;5.82;;;21.20;99.90;;;;;;5010586;28;20091;-58
2022/08/15 00:05:26;;;;;;;10.93;5.90;;;21.30;99.90;;;;;;5012633;28;20055;-56
2022/08/15 00:07:53;;;;;;;8.95;5.90;;;21.20;99.90;;;;;;5010861;28;20472;-52
2022/08/15 00:10:21;;;;;;;12.80;5.53;;;21.20;99.90;;;;;;5012307;28;20120;-54
2022/08/15 00:12:48;;;;;;;11.05;6.78;;;21.20;99.90;;;;;;5006990;28;20048;-57
2022/08/15 00:15:18;;;;;;;11.75;5.32;;;21.20;99.90;;;;;;5003405;28;20063;-56
2022/08/15 00:17:44;;;;;;;9.45;5.85;;;21.20;99.90;;;;;;5011339;28;20420;-54
2022/08/15 00:20:11;;;;;;;8.73;5.95;;;21.30;99.90;;;;;;5007444;28;20045;-56
2022/08/15 00:22:44;;;;;;;9.75;5.72;;;21.30;99.90;;;;;;5009562;28;20495;-56
2022/08/15 00:25:10;;;;;;;10.77;6.40;;;21.20;99.90;;;;;;5005720;28;20045;-52
2022/08/15 00:27:35;;;;;;;9.90;6.65;;;21.20;99.90;;;;;;5009932;28;20033;-57
2022/08/15 00:30:03;;;;;;;8.50;5.85;;;21.20;99.90;;;;;;5007985;28;20041;-55
2022/08/15 00:32:31;;;;;;;10.30;6.20;;;21.20;99.90;;;;;;5012022;28;20500;-57
2022/08/15 00:34:56;;;;;;;14.25;6.03;;;21.10;99.90;;;;;;5005062;28;20344;-57
2022/08/15 00:37:22;;;;;;;7.43;5.70;;;21.10;99.90;;;;;;5010381;28;20109;-57
2022/08/15 00:39:47;;;;;;;7.60;5.88;;;21.00;99.90;;;;;;5013176;28;20036;-58
2022/08/15 00:42:13;;;;;;;9.73;6.10;;;21.00;99.90;;;;;;5013722;28;20128;-53
2022/08/15 00:44:44;;;;;;;8.07;5.85;;;20.90;99.90;;;;;;5007432;28;20030;-55
2022/08/15 00:47:17;;;;;;;8.98;5.38;;;20.80;99.90;;;;;;5004516;28;20054;-57
2022/08/15 00:49:45;;;;;;;13.30;5.90;;;20.90;99.90;;;;;;5007733;28;20391;-56
2022/08/15 00:52:26;;;;;;;9.85;5.75;;;20.90;99.90;;;;;;5007244;28;20033;-58
2022/08/15 00:55:08;;;;;;;7.90;5.90;;;20.90;99.90;;;;;;5006683;28;20495;-57
2022/08/15 00:57:40;;;;;;;7.93;5.82;;;21.00;99.90;;;;;;5006193;28;20053;-58
2022/08/15 01:00:16;;;;;;;12.63;6.13;;;21.00;99.90;;;;;;5018723;28;20026;-57
2022/08/15 01:02:42;;;;;;;14.00;5.60;;;21.00;99.90;;;;;;5007098;28;20029;-58
2022/08/15 01:05:10;;;;;;;11.38;6.15;;;21.10;99.90;;;;;;5013748;28;20510;-58
2022/08/15 01:07:36;;;;;;;8.88;5.90;;;21.10;99.90;;;;;;5006451;28;20033;-57
2022/08/15 01:10:05;;;;;;;9.07;5.63;;;21.20;99.90;;;;;;5013819;28;20403;-57
2022/08/15 01:12:32;;;;;;;8.23;5.90;;;21.20;99.90;;;;;;5014508;28;20025;-58
2022/08/15 01:15:03;;;;;;;9.60;5.82;;;21.10;99.90;;;;;;5016924;28;20033;-58
2022/08/15 01:17:31;;;;;;;11.13;5.95;;;21.20;99.90;;;;;;5012883;28;20036;-58
2022/08/15 01:20:11;;;;;;;9.10;5.82;;;21.20;99.90;;;;;;5011757;28;20022;-58
2022/08/15 01:23:04;;;;;;;9.68;6.65;;;21.30;99.90;;;;;;5008433;28;20484;-58
2022/08/15 01:25:44;;;;;;;12.15;6.32;;;21.20;99.90;;;;;;5006003;28;20403;-54
2022/08/15 01:28:13;;;;;;;7.30;5.35;;;21.20;99.90;;;;;;5011762;28;20488;-58
2022/08/15 01:30:42;;;;;;;12.13;5.95;;;21.10;99.90;;;;;;5018336;28;20061;-58
2022/08/15 01:33:08;;;;;;;11.52;6.40;;;21.10;99.90;;;;;;5025902;28;20089;-58
2022/08/15 01:35:34;;;;;;;8.07;5.70;;;21.00;99.90;;;;;;5019404;28;20511;-58
2022/08/15 01:38:01;;;;;;;10.52;5.82;;;21.00;99.90;;;;;;5012388;28;20020;-54
2022/08/15 01:40:57;;;;;;;11.93;5.85;;;20.90;99.90;;;;;;5015579;28;20018;-58
2022/08/15 01:43:28;;;;;;;10.77;5.65;;;20.80;99.90;;;;;;5006794;28;20065;-58
2022/08/15 01:45:59;;;;;;;7.50;5.95;;;20.70;99.90;;;;;;5014883;28;20486;-58
2022/08/15 01:48:49;;;;;;;10.95;6.05;;;20.70;99.90;;;;;;5016637;28;20120;-58
2022/08/15 01:51:16;;;;;;;12.65;5.93;;;20.70;99.90;;;;;;5006382;28;20045;-56
2022/08/15 01:53:47;;;;;;;9.55;5.13;;;20.70;99.90;;;;;;5013626;28;20348;-53
2022/08/15 01:56:19;;;;;;;9.70;5.53;;;20.70;99.90;;;;;;5007713;28;20030;-52
2022/08/15 01:58:45;;;;;;;9.20;5.80;;;20.60;99.90;;;;;;5011888;28;20112;-57
2022/08/15 02:01:15;;;;;;;9.50;5.18;;;20.70;99.90;;;;;;5007795;28;20037;-56
2022/08/15 02:03:42;;;;;;;9.18;5.82;;;20.70;99.90;;;;;;5013872;28;20026;-57
2022/08/15 02:06:15;;;;;;;14.68;6.03;;;20.70;99.90;;;;;;5012564;28;20065;-54
2022/08/15 02:08:43;;;;;;;8.03;5.33;;;20.70;99.90;;;;;;5009096;28;20538;-54
2022/08/15 02:11:13;;;;;;;9.88;5.28;;;20.70;99.90;;;;;;5011416;28;20281;-55
2022/08/15 02:13:41;;;;;;;7.57;5.25;;;20.70;99.90;;;;;;5016685;28;20026;-54
2022/08/15 02:18:33;;;;;;;11.88;5.70;;;20.70;99.90;;;;;;5046099;22;20054;-59
2022/08/15 02:20:59;;;;;;;9.40;5.35;;;20.70;99.90;;;;;;5029152;28;20040;-60
2022/08/15 02:23:26;;;;;;;12.63;5.80;;;20.70;99.90;;;;;;5028071;28;20033;-60
2022/08/15 02:25:54;;;;;;;13.82;5.43;;;20.60;99.90;;;;;;5028406;28;20097;-58
2022/08/15 02:28:20;;;;;;;8.88;5.45;;;20.50;99.90;;;;;;5030753;28;20041;-61
2022/08/15 02:30:46;;;;;;;10.60;5.05;;;20.40;99.90;;;;;;5032247;28;20535;-61
2022/08/15 02:33:13;;;;;;;12.18;5.32;;;20.40;99.90;;;;;;5030499;28;20060;-61
2022/08/15 02:35:39;;;;;;;11.68;5.65;;;20.30;99.90;;;;;;5028890;28;20060;-61
2022/08/15 02:38:06;;;;;;;8.48;5.50;;;20.40;99.90;;;;;;5028060;28;20459;-59
2022/08/15 02:40:33;;;;;;;7.43;5.50;;;20.40;99.90;;;;;;5026914;28;20037;-58
2022/08/15 02:43:08;;;;;;;10.20;5.60;;;20.40;99.90;;;;;;5024070;28;20403;-58
2022/08/15 02:45:38;;;;;;;10.10;5.13;;;20.40;99.90;;;;;;5028669;28;20068;-56
2022/08/15 02:48:06;;;;;;;7.72;5.13;;;20.40;99.90;;;;;;5031648;28;20036;-59
2022/08/15 02:50:33;;;;;;;8.07;5.40;;;20.40;99.90;;;;;;5028912;28;20514;-58
2022/08/15 02:53:00;;;;;;;8.27;5.10;;;20.50;99.90;;;;;;5031407;28;20041;-58
2022/08/15 02:55:26;;;;;;;9.00;5.72;;;20.50;99.90;;;;;;5031671;28;20022;-60
2022/08/15 02:57:52;;;;;;;7.65;4.97;;;20.50;99.90;;;;;;5029578;28;20044;-60
2022/08/15 03:00:18;;;;;;;10.07;5.00;;;20.60;99.90;;;;;;5027494;28;20564;-60
2022/08/15 03:02:57;;;;;;;10.23;5.13;;;20.60;99.90;;;;;;5028791;28;20518;-60
2022/08/15 03:05:24;;;;;;;6.40;4.95;;;20.60;99.90;;;;;;5033538;28;20030;-59
2022/08/15 03:07:50;;;;;;;6.88;4.78;;;20.60;99.90;;;;;;5028955;28;20495;-57
2022/08/15 03:10:16;;;;;;;8.07;4.78;;;20.70;99.90;;;;;;5031617;28;20365;-59
2022/08/15 03:13:01;;;;;;;7.25;4.93;;;20.70;99.90;;;;;;5029053;28;20460;-60
2022/08/15 03:15:37;;;;;;;8.35;4.82;;;20.70;99.90;;;;;;5026875;28;20112;-60
2022/08/15 03:18:03;;;;;;;9.73;6.60;;;20.70;99.90;;;;;;5028046;28;20041;-60
2022/08/15 03:20:29;;;;;;;7.85;4.78;;;20.80;99.90;;;;;;5027006;28;20037;-59
2022/08/15 03:22:55;;;;;;;9.43;4.55;;;20.80;99.90;;;;;;5030327;28;20017;-60
2022/08/15 03:25:23;;;;;;;7.80;4.22;;;20.80;99.90;;;;;;5030760;28;20518;-57
2022/08/15 03:27:49;;;;;;;6.40;3.97;;;20.80;99.90;;;;;;5028028;28;20018;-60
2022/08/15 03:30:16;;;;;;;7.35;4.03;;;20.70;99.90;;;;;;5026239;28;20479;-59
2022/08/15 03:32:47;;;;;;;7.25;5.22;;;20.80;99.90;;;;;;5031686;28;20041;-60
2022/08/15 03:35:14;;;;;;;10.48;4.43;;;20.80;99.90;;;;;;5027868;28;20391;-60
2022/08/15 03:37:40;;;;;;;8.90;4.60;;;20.80;99.90;;;;;;5027530;28;20078;-60
2022/08/15 03:40:06;;;;;;;10.48;4.60;;;20.80;99.90;;;;;;5026960;28;20026;-60
2022/08/15 03:42:33;;;;;;;7.25;4.68;;;20.80;99.90;;;;;;5022127;28;20072;-60
2022/08/15 03:45:02;;;;;;;11.90;4.45;;;20.80;99.90;;;;;;5029738;28;20693;-60
2022/08/15 03:47:28;;;;;;;5.90;4.20;;;20.90;99.90;;;;;;5027232;28;20058;-60
2022/08/15 03:49:54;;;;;;;10.63;4.15;;;20.90;99.90;;;;;;5021403;28;20022;-60
2022/08/15 03:52:20;;;;;;;6.53;4.32;;;21.00;99.90;;;;;;5028948;28;20022;-60
2022/08/15 03:54:45;;;;;;;6.50;4.70;;;21.00;99.90;;;;;;5028112;28;20109;-60
2022/08/15 03:57:11;;;;;;;6.05;4.20;;;21.00;99.90;;;;;;5027285;28;20055;-58
2022/08/15 03:59:37;;;;;;;8.02;4.32;;;21.00;99.90;;;;;;5027670;28;20391;-57
2022/08/15 04:02:06;;;;;;;6.93;4.18;;;21.00;99.90;;;;;;5027808;28;20033;-60
2022/08/15 04:04:33;;;;;;;5.70;3.88;;;21.00;99.90;;;;;;5026801;28;20097;-59
2022/08/15 04:06:59;;;;;;;6.85;4.30;;;21.00;99.90;;;;;;5026679;28;20022;-60
2022/08/15 04:09:24;;;;;;;7.80;4.55;;;21.00;99.90;;;;;;5026505;28;20471;-60
2022/08/15 04:11:50;;;;;;;6.70;4.40;;;21.00;99.90;;;;;;5028568;28;20120;-60
2022/08/15 04:14:16;;;;;;;7.93;4.82;;;20.90;99.90;;;;;;5024967;28;20041;-60
2022/08/15 04:16:41;;;;;;;6.82;4.25;;;20.90;99.90;;;;;;5024835;28;20025;-60
2022/08/15 04:19:07;;;;;;;8.68;4.35;;;20.90;99.90;;;;;;5022283;28;20535;-60
2022/08/15 04:21:32;;;;;;;5.45;4.03;;;20.80;99.90;;;;;;5029401;28;20029;-58
2022/08/15 04:23:58;;;;;;;7.40;4.90;;;20.80;99.90;;;;;;5026927;28;20041;-59
2022/08/15 04:26:24;;;;;;;6.50;4.30;;;20.80;99.90;;;;;;5024370;28;20025;-60
2022/08/15 04:28:50;;;;;;;8.80;4.38;;;20.80;99.90;;;;;;5027122;28;20025;-59
2022/08/15 04:31:20;;;;;;;6.30;4.20;;;20.70;99.90;;;;;;5029036;28;20475;-59
2022/08/15 04:33:46;;;;;;;6.53;3.90;;;20.70;99.90;;;;;;5023356;28;20041;-60
2022/08/15 04:36:15;;;;;;;8.60;3.63;;;20.70;99.90;;;;;;5026868;28;20536;-59
2022/08/15 04:38:42;;;;;;;9.68;3.95;;;20.70;99.90;;;;;;5025687;28;20428;-59
2022/08/15 04:41:09;;;;;;;8.38;4.13;;;20.80;99.90;;;;;;5034560;28;20034;-56
2022/08/15 04:43:38;;;;;;;10.45;4.22;;;20.70;99.90;;;;;;5032299;28;20067;-58
2022/08/15 04:46:04;;;;;;;7.35;3.15;;;20.80;99.90;;;;;;5034963;28;20024;-57
2022/08/15 04:48:31;;;;;;;7.75;4.18;;;20.80;99.90;;;;;;5025837;28;20442;-58
2022/08/15 04:50:58;;;;;;;7.30;3.92;;;20.80;99.90;;;;;;5027383;28;20022;-58
2022/08/15 04:53:28;;;;;;;5.75;3.83;;;20.90;99.90;;;;;;5032671;28;20036;-58
2022/08/15 04:55:55;;;;;;;7.53;3.53;;;21.00;99.90;;;;;;5025902;28;20034;-56
2022/08/15 04:58:22;;;;;;;9.25;3.75;;;21.00;99.90;;;;;;5022845;28;20120;-58
2022/08/15 05:00:57;;;;;;;4.10;3.00;;;21.10;99.90;;;;;;5025493;28;20450;-55
2022/08/15 05:03:23;;;;;;;9.80;3.95;;;21.10;99.90;;;;;;5026793;28;21497;-57
2022/08/15 05:05:54;;;;;;;8.40;3.28;;;21.10;99.90;;;;;;5028837;28;20112;-57
2022/08/15 05:08:21;;;;;;;7.28;3.33;;;21.20;99.90;;;;;;5032226;28;20108;-58
2022/08/15 05:11:00;;;;;;;6.57;3.17;;;21.20;99.90;;;;;;5029490;28;20025;-56
2022/08/15 05:13:28;;;;;;;5.90;2.60;;;21.30;99.90;;;;;;5030963;28;20026;-58
2022/08/15 05:15:55;;;;;;;8.60;3.15;;;21.40;99.90;;;;;;5030263;28;20079;-58
2022/08/15 05:18:24;;;;;;;10.93;2.92;;;21.40;99.90;;;;;;5033017;28;20156;-57
2022/08/15 05:20:50;;;;;;;13.82;2.80;;;21.70;99.90;;;;;;5029153;28;20532;-55
2022/08/15 05:23:19;;;;;;;4.72;2.40;;;21.80;99.90;;;;;;5032764;28;20029;-58
2022/08/15 05:25:48;;;;;;;8.15;3.28;;;21.90;99.90;;;;;;5035726;28;20025;-58
2022/08/15 05:28:14;;;;;;;4.05;2.42;;;21.90;99.90;;;;;;5021947;28;20030;-56
2022/08/15 05:30:40;;;;;;;6.43;3.08;;;21.80;99.90;;;;;;5032554;28;20094;-58
2022/08/15 05:33:12;;;;;;;6.38;3.15;;;21.80;99.90;;;;;;5030952;28;20439;-57
2022/08/15 05:35:59;;;;;;;5.70;2.67;;;21.80;99.90;;;;;;5030890;28;20506;-55
2022/08/15 05:38:48;;;;;;;3.67;2.67;;;21.70;99.90;;;;;;5031976;28;20033;-58
2022/08/15 05:41:32;;;;;;;6.70;2.90;;;21.70;99.90;;;;;;5031010;28;20108;-58
2022/08/15 05:44:21;;;;;;;7.53;2.85;;;21.70;99.90;;;;;;5031416;28;20032;-57
2022/08/15 05:46:52;;;;;;;5.32;3.10;;;21.80;99.90;;;;;;5030965;28;20040;-58
2022/08/15 05:49:44;;;;;;;9.35;2.75;;;21.80;99.90;;;;;;5032648;28;20044;-58
2022/08/15 05:52:27;;;;;;;10.00;2.95;;;21.90;99.90;;;;;;5015582;28;20046;-57
2022/08/15 05:55:13;;;;;;;7.40;2.72;;;22.00;99.90;;;;;;5032794;28;20484;-56
2022/08/15 05:57:41;;;;;;;7.70;2.58;;;22.00;99.90;;;;;;5031447;28;20021;-59
2022/08/15 06:00:10;;;;;;;5.10;2.55;;;22.20;99.90;;;;;;5030029;28;20099;-58
2022/08/15 06:02:41;;;;;;;7.50;3.10;;;22.30;99.90;;;;;;5026280;28;20128;-58
2022/08/15 06:05:12;;;;;;;8.48;2.95;;;22.40;99.90;;;;;;5032657;28;20518;-59
2022/08/15 06:07:41;;;;;;;7.97;2.90;;;22.50;99.90;;;;;;5027238;28;20022;-58
2022/08/15 06:10:22;;;;;;;6.63;2.58;;;22.60;99.90;;;;;;5032617;28;20025;-58
2022/08/15 06:12:51;;;;;;;6.63;2.75;;;22.70;99.90;;;;;;5032246;28;20087;-56
2022/08/15 06:15:23;;;;;;;6.07;2.83;;;22.80;99.90;;;;;;5029506;28;20029;-59
2022/08/15 06:18:03;;;;;;;5.53;2.42;;;23.00;99.90;;;;;;5029144;28;20056;-58
2022/08/15 06:20:48;;;;;;;4.18;2.42;;;23.10;99.90;;;;;;5031408;28;20123;-59
2022/08/15 06:23:32;;;;;;;10.93;2.67;;;23.20;99.90;;;;;;5030025;28;20120;-58
2022/08/15 06:26:10;;;;;;;;;;;23.30;99.90;;;;;;5030229;28;20167;-57
2022/08/15 06:29:04;;;;;;;11.15;2.58;;;23.50;99.90;;;;;;5031239;28;19913;-57
2022/08/15 06:31:33;;;;;;;8.30;2.95;;;23.60;99.90;;;;;;5028624;28;20033;-58
2022/08/15 06:34:07;;;;;;;5.72;2.90;;;23.70;99.90;;;;;;5029245;28;20086;-57
2022/08/15 06:36:41;;;;;;;4.07;2.78;;;23.70;99.90;;;;;;5028770;28;20325;-57
2022/08/15 06:39:27;;;;;;;4.80;2.28;;;23.80;99.90;;;;;;5032061;28;20018;-58
2022/08/15 06:42:06;;;;;;;7.93;3.55;;;23.80;99.90;;;;;;5029726;28;20025;-58
2022/08/15 06:44:33;;;;;;;5.05;2.20;;;23.80;99.90;;;;;;5031380;28;20037;-58
2022/08/15 06:47:03;;;;;;;10.15;3.00;;;23.80;99.90;;;;;;5028889;28;20029;-57
2022/08/15 06:49:35;;;;;;;5.60;3.22;;;23.80;99.90;;;;;;5028591;28;20765;-57
2022/08/15 06:52:02;;;;;;;5.15;2.22;;;23.80;99.90;;;;;;5027944;28;20072;-57
2022/08/15 06:54:29;;;;;;;7.78;3.05;;;23.90;99.90;;;;;;5030949;28;20034;-57
2022/08/15 06:57:15;;;;;;;15.75;3.05;;;23.90;99.90;;;;;;5030613;28;20017;-58
2022/08/15 07:00:04;;;;;;;6.38;3.42;;;24.00;99.90;;;;;;5031287;28;20028;-56
2022/08/15 07:02:49;;;;;;;4.53;2.50;;;24.10;99.90;;;;;;5028378;28;20104;-58
2022/08/15 07:05:28;;;;;;;10.23;2.97;;;24.10;99.90;;;;;;5025534;28;20036;-58
2022/08/15 07:08:19;;;;;;;13.88;3.15;;;24.20;99.90;;;;;;5028292;28;20022;-56
2022/08/15 07:11:23;;;;;;;11.32;3.47;;;24.20;99.90;;;;;;5030360;28;20039;-56
2022/08/15 07:14:07;;;;;;;13.27;3.17;;;24.20;99.90;;;;;;5029584;28;20053;-57
2022/08/15 07:17:01;;;;;;;13.63;3.37;;;24.30;99.90;;;;;;5024299;28;20454;-58
2022/08/15 07:19:27;;;;;;;7.38;3.50;;;24.30;99.90;;;;;;5029086;28;20288;-56
2022/08/15 07:21:52;;;;;;;11.82;3.42;;;24.30;99.90;;;;;;5029922;28;20033;-58
2022/08/15 07:24:18;;;;;;;10.48;3.22;;;24.30;99.90;;;;;;5031549;28;20019;-54
2022/08/15 07:26:48;;;;;;;6.15;2.22;;;24.30;99.90;;;;;;5026971;28;20115;-56
2022/08/15 07:29:29;;;;;;;12.65;2.70;;;24.40;99.90;;;;;;5028014;28;20021;-56
2022/08/15 07:32:15;;;;;;;12.13;2.88;;;24.40;99.90;;;;;;5030366;28;20025;-56
2022/08/15 07:35:12;;;;;;;9.88;3.42;;;24.40;99.90;;;;;;5028670;28;20493;-58
2022/08/15 07:37:59;;;;;;;11.02;2.85;;;24.40;99.90;;;;;;5027611;28;20064;-58
2022/08/15 07:40:27;;;;;;;8.10;2.60;;;24.30;99.90;;;;;;5030250;28;20443;-58
2022/08/15 07:42:54;;;;;;;14.85;3.28;;;24.40;99.90;;;;;;5030417;28;20540;-57
2022/08/15 07:45:25;;;;;;;7.18;2.67;;;24.20;99.90;;;;;;5029990;28;20045;-57
2022/08/15 07:47:57;;;;;;;9.02;2.97;;;24.20;99.90;;;;;;5029543;28;20030;-58
2022/08/15 07:50:42;;;;;;;5.05;2.75;;;24.20;99.90;;;;;;5028588;28;20026;-58
2022/08/15 07:53:16;;;;;;;13.50;3.20;;;24.30;99.90;;;;;;5027564;28;20033;-57
2022/08/15 07:56:04;;;;;;;12.63;2.92;;;24.30;99.90;;;;;;5024540;28;20491;-55
2022/08/15 07:58:32;;;;;;;12.63;2.35;;;24.30;99.90;;;;;;5009121;28;20033;-59
2022/08/15 08:01:15;;;;;;;7.85;2.95;;;24.30;99.90;;;;;;5028555;28;20021;-54
2022/08/15 08:03:50;;;;;;;18.55;3.10;;;24.20;99.90;;;;;;5029316;28;20061;-56
2022/08/15 08:06:15;;;;;;;4.22;2.25;;;24.30;99.90;;;;;;5024695;28;20037;-55
2022/08/15 08:08:51;;;;;;;5.43;2.45;;;24.30;99.90;;;;;;5030067;28;20021;-56
2022/08/15 08:11:31;;;;;;;5.88;2.72;;;24.30;99.90;;;;;;5028609;28;20033;-54
2022/08/15 08:14:13;;;;;;;9.82;2.65;;;24.40;99.90;;;;;;5024712;28;20248;-58
2022/08/15 08:16:54;;;;;;;8.70;2.20;;;24.40;99.90;;;;;;5027690;28;20028;-55
2022/08/15 08:19:36;;;;;;;4.43;2.33;;;24.40;99.90;;;;;;5050393;22;20049;-56
2022/08/15 08:22:17;;;;;;;7.38;2.85;;;24.50;99.90;;;;;;5010157;28;20025;-56
2022/08/15 08:24:59;;;;;;;11.07;2.55;;;24.40;99.90;;;;;;5033260;28;20036;-56
2022/08/15 08:27:40;;;;;;;6.57;2.78;;;24.40;99.90;;;;;;5049251;28;20017;-57
2022/08/15 08:30:14;;;;;;;8.57;2.65;;;24.50;99.90;;;;;;5017966;28;20033;-57
2022/08/15 08:32:56;;;;;;;12.30;4.20;;;24.40;99.90;;;;;;5010950;28;20411;-55
2022/08/15 08:35:39;;;;;;;7.97;2.63;;;24.50;99.90;;;;;;5009472;28;20118;-58
2022/08/15 08:38:20;;;;;;;4.40;2.83;;;24.40;99.90;;;;;;5013509;28;20025;-55
2022/08/15 08:43:43;;;;;;;6.05;2.90;;;24.50;99.90;;;;;;5023780;28;20084;-58
2022/08/15 08:46:28;;;;;;;4.60;2.15;;;24.50;99.90;;;;;;5025787;28;20080;-57
2022/08/15 08:49:09;;;;;;;6.00;2.63;;;24.50;99.90;;;;;;5028228;28;20022;-58
2022/08/15 08:51:56;;;;;;;14.30;2.22;;;24.40;99.90;;;;;;5004522;28;20026;-57
2022/08/15 08:54:22;;;;;;;4.07;2.63;;;24.40;99.90;;;;;;5010784;28;20065;-56
2022/08/15 08:56:54;;;;;;;5.30;2.88;;;24.40;99.90;;;;;;5010787;28;20561;-57
2022/08/15 09:00:03;;;;;;;9.68;2.72;;;24.30;99.90;;;;;;5010452;28;20026;-57
2022/08/15 09:02:36;;;;;;;11.95;3.13;;;24.30;99.90;;;;;;5009728;28;20079;-56
2022/08/15 09:05:12;;;;;;;6.38;2.72;;;24.40;99.90;;;;;;5017330;28;20026;-57
2022/08/15 09:07:46;;;;;;;8.55;2.63;;;24.30;99.90;;;;;;5029192;28;20025;-57
2022/08/15 09:10:20;;;;;;;5.78;2.78;;;24.40;99.90;;;;;;5029248;28;20414;-58
2022/08/15 09:15:32;;;;;;;8.30;3.22;;;24.30;99.90;;;;;;5004287;28;20036;-57
2022/08/15 09:18:11;;;;;;;10.45;2.63;;;24.40;99.90;;;;;;5010072;28;20083;-58
2022/08/15 09:20:40;;;;;;;6.55;2.72;;;24.40;99.90;;;;;;5022160;28;20479;-58
2022/08/15 09:23:10;;;;;;;6.15;3.30;;;24.60;99.90;;;;;;5028092;28;20108;-56
2022/08/15 09:25:54;;;;;;;11.15;3.20;;;24.60;99.90;;;;;;5029125;28;20029;-58
2022/08/15 09:28:31;;;;;;;5.53;2.83;;;24.70;99.90;;;;;;5014877;28;20427;-57
2022/08/15 09:31:18;;;;;;;6.53;2.60;;;24.80;99.90;;;;;;5010224;28;20032;-58
2022/08/15 09:34:02;;;;;;;7.93;2.50;;;24.70;99.90;;;;;;5002619;28;20023;-56
2022/08/15 09:37:05;;;;;;;5.30;2.50;;;24.70;99.90;;;;;;5005705;28;20503;-59
2022/08/15 09:39:48;;;;;;;6.32;2.60;;;24.70;99.90;;;;;;5009782;28;20029;-54
2022/08/15 09:42:30;;;;;;;6.43;2.80;;;24.80;99.90;;;;;;5009670;28;20066;-57
2022/08/15 09:45:11;;;;;;;9.80;2.75;;;24.80;99.90;;;;;;5019145;28;20025;-58
2022/08/15 09:48:03;;;;;;;8.23;2.80;;;24.70;99.90;;;;;;5028575;28;20029;-58
2022/08/15 09:51:15;;;;;;;9.65;2.55;;;24.70;99.90;;;;;;5022249;28;20390;-56
2022/08/15 09:54:05;;;;;;;10.63;2.20;;;24.60;99.90;;;;;;4977135;28;20500;-56
2022/08/15 09:56:36;;;;;;;8.52;2.70;;;24.70;99.90;;;;;;5014520;28;20041;-58
2022/08/15 09:59:14;;;;;;;7.20;3.03;;;24.70;99.90;;;;;;5014825;28;20635;-58
2022/08/15 10:01:47;;;;;;;5.70;2.95;;;24.80;99.90;;;;;;5025443;28;20041;-56
2022/08/15 10:04:15;;;;;;;4.40;2.30;;;24.60;99.90;;;;;;5029978;28;20434;-56
2022/08/15 10:07:10;;;;;;;4.53;2.60;;;24.60;99.90;;;;;;5025367;28;20509;-58
2022/08/15 10:09:59;;;;;;;4.40;2.45;;;24.80;99.90;;;;;;5010739;28;20116;-57
2022/08/15 10:12:24;;;;;;;6.05;2.42;;;24.90;99.90;;;;;;5021876;28;20126;-57
2022/08/15 10:14:53;;;;;;;8.77;2.78;;;24.90;99.90;;;;;;5030887;28;20733;-58
2022/08/15 10:17:40;;;;;;;3.28;2.53;;;24.90;99.90;;;;;;5018763;28;20055;-57
2022/08/15 10:20:15;;;;;;;6.68;2.20;;;24.80;99.90;;;;;;5011464;28;20084;-57
2022/08/15 10:22:59;;;;;;;5.47;2.25;;;24.70;99.90;;;;;;5026046;28;20097;-58
2022/08/15 10:25:28;;;;;;;4.45;2.58;;;24.80;99.90;;;;;;5032311;28;20072;-56
2022/08/15 10:27:59;;;;;;;4.68;2.67;;;24.80;99.90;;;;;;5031276;28;20092;-58
2022/08/15 10:30:30;;;;;;;7.18;2.17;;;24.80;99.90;;;;;;5032078;28;20026;-58
2022/08/15 10:32:56;;;;;;;3.30;2.20;;;24.80;99.90;;;;;;5028156;28;20030;-58
2022/08/15 10:35:37;;;;;;;8.20;2.83;;;24.80;99.90;;;;;;5027840;28;20083;-58
2022/08/15 10:38:07;;;;;;;4.20;2.28;;;24.90;99.90;;;;;;5031764;28;20394;-57
2022/08/15 10:40:59;;;;;;;3.40;2.10;;;24.90;99.90;;;;;;5031996;28;20021;-57
2022/08/15 10:43:54;;;;;;;2.67;2.08;;;24.80;99.90;;;;;;5022670;28;20156;-58
2022/08/15 10:46:36;;;;;;;4.43;2.10;;;24.70;99.90;;;;;;5009057;28;20465;-56
2022/08/15 10:49:13;;;;;;;3.65;1.85;;;24.50;99.90;;;;;;5011689;28;20165;-58
2022/08/15 10:51:43;;;;;;;5.25;2.05;;;24.40;99.90;;;;;;5012611;28;20057;-58
2022/08/15 10:54:30;;;;;;;4.00;2.30;;;24.10;99.90;;;;;;5031386;28;20025;-58
2022/08/15 10:56:56;;;;;;;7.80;2.40;;;24.00;99.90;;;;;;5031343;28;20068;-55
2022/08/15 10:59:25;;;;;;;5.40;2.28;;;24.00;99.90;;;;;;5031465;28;20495;-57
2022/08/15 11:02:17;;;;;;;3.67;2.50;;;24.00;99.90;;;;;;5031097;28;20105;-59
2022/08/15 11:04:44;;;;;;;4.47;2.42;;;23.90;99.90;;;;;;5023019;28;20033;-57
2022/08/15 11:07:28;;;;;;;4.35;2.40;;;23.70;99.90;;;;;;5030497;28;20111;-58
2022/08/15 11:09:56;;;;;;;;;;;23.50;99.90;;;;;;5028565;28;20044;-57
2022/08/15 11:12:23;;;;;;;5.75;2.85;;;23.50;99.90;;;;;;5018506;28;19905;-57
2022/08/15 11:14:58;;;;;;;6.78;3.38;;;23.30;99.90;;;;;;5015733;28;20025;-56
2022/08/15 11:17:27;;;;;;;3.20;2.38;;;23.10;99.90;;;;;;5021513;28;20069;-56
2022/08/15 11:19:58;;;;;;;4.60;2.67;;;23.00;99.90;;;;;;5010630;28;20116;-58
2022/08/15 11:22:34;;;;;;;3.55;2.90;;;23.00;99.90;;;;;;4994500;28;20030;-56
2022/08/15 11:25:07;;;;;;;5.95;2.53;;;22.90;99.90;;;;;;5012136;28;20101;-59
2022/08/15 11:27:32;;;;;;;4.65;2.95;;;23.00;99.90;;;;;;5012083;28;20117;-57
2022/08/15 11:29:58;;;;;;;6.38;3.13;;;22.70;99.90;;;;;;5011954;28;20112;-56
2022/08/15 11:32:32;;;;;;;9.38;2.85;;;22.70;99.90;;;;;;5011036;28;20028;-56
2022/08/15 11:35:07;;;;;;;4.97;2.95;;;22.70;99.90;;;;;;5029174;28;20033;-57
2022/08/15 11:37:40;;;;;;;5.82;3.42;;;22.80;99.90;;;;;;5030526;28;20111;-58
2022/08/15 11:40:18;;;;;;;8.95;3.30;;;22.80;99.90;;;;;;5030516;28;20155;-59
2022/08/15 11:42:46;;;;;;;4.35;3.00;;;22.80;99.90;;;;;;5030647;28;20144;-56
2022/08/15 11:45:25;;;;;;;4.78;2.80;;;22.80;99.90;;;;;;5029403;28;20391;-57
2022/08/15 11:47:55;;;;;;;6.85;3.70;;;22.70;99.90;;;;;;5017795;28;20106;-59
2022/08/15 11:50:24;;;;;;;5.82;3.70;;;22.60;99.90;;;;;;5030080;28;20387;-56
2022/08/15 11:52:55;;;;;;;4.03;3.20;;;22.60;99.90;;;;;;5030191;28;20159;-59
2022/08/15 11:55:41;;;;;;;5.28;3.13;;;22.70;99.90;;;;;;5030909;28;20017;-58
2022/08/15 11:58:12;;;;;;;6.03;3.00;;;22.80;99.90;;;;;;5025823;28;20433;-59
2022/08/15 12:00:43;;;;;;;8.07;3.80;;;22.60;99.90;;;;;;5023816;28;20025;-54
2022/08/15 12:03:30;;;;;;;8.68;4.53;;;22.70;99.90;;;;;;5013711;28;20030;-58
2022/08/15 12:06:14;;;;;;;9.27;3.30;;;22.80;99.90;;;;;;5009697;28;20029;-58
2022/08/15 12:08:42;;;;;;;5.60;3.55;;;22.90;99.90;;;;;;5005520;28;20037;-55
2022/08/15 12:11:13;;;;;;;6.20;3.58;;;23.00;99.90;;;;;;5008814;28;20030;-57
2022/08/15 12:13:52;;;;;;;6.57;3.85;;;23.00;99.90;;;;;;5010022;28;20128;-57
2022/08/15 12:16:47;;;;;;;7.57;3.40;;;23.00;99.90;;;;;;5022664;28;20106;-58
2022/08/15 12:19:35;;;;;;;7.05;3.45;;;23.10;99.90;;;;;;5012336;28;20120;-57
2022/08/15 12:22:13;;;;;;;5.72;3.58;;;23.10;99.90;;;;;;5022308;28;20101;-58
2022/08/15 12:24:43;;;;;;;4.00;3.47;;;23.00;99.90;;;;;;5021302;28;20034;-58
2022/08/15 12:27:10;;;;;;;4.63;3.40;;;23.10;99.90;;;;;;5016466;28;20067;-57
2022/08/15 12:29:37;;;;;;;5.53;3.72;;;23.20;99.90;;;;;;5019740;28;20030;-59
2022/08/15 12:32:07;;;;;;;6.18;3.55;;;23.20;99.90;;;;;;5009998;28;20062;-56
2022/08/15 12:34:43;;;;;;;4.95;3.35;;;23.30;99.90;;;;;;5009587;28;20057;-58
2022/08/15 12:37:14;;;;;;;6.07;3.45;;;23.40;99.90;;;;;;5009417;28;20305;-56
2022/08/15 12:39:43;;;;;;;7.28;3.33;;;23.60;99.90;;;;;;5010433;28;20070;-59
2022/08/15 12:42:20;;;;;;;5.70;3.80;;;23.90;99.90;;;;;;5012709;28;20044;-57
2022/08/15 12:44:48;;;;;;;3.13;2.67;;;24.20;99.90;;;;;;5008937;28;20618;-56
2022/08/15 12:47:15;;;;;;;5.15;3.33;;;24.40;99.90;;;;;;5014914;28;20021;-58
2022/08/15 12:49:41;;;;;;;10.40;3.67;;;24.70;99.90;;;;;;5017402;28;20538;-58
2022/08/15 12:52:06;;;;;;;4.50;3.50;;;24.80;99.90;;;;;;5014486;28;20030;-56
2022/08/15 12:54:32;;;;;;;4.95;3.42;;;25.00;99.90;;;;;;5021414;28;20049;-56
2022/08/15 12:56:58;;;;;;;4.47;2.47;;;25.40;99.90;;;;;;5019922;28;20021;-56
2022/08/15 12:59:23;;;;;;;3.78;2.78;;;25.30;99.90;;;;;;5026224;28;20022;-58
2022/08/15 13:01:50;;;;;;;4.97;3.35;;;25.30;99.90;;;;;;5012184;28;20570;-57
2022/08/15 13:04:16;;;;;;;3.67;3.20;;;25.20;99.90;;;;;;5009083;28;20045;-58
2022/08/15 13:06:49;;;;;;;3.83;2.95;;;25.30;99.90;;;;;;4999353;28;20065;-57
2022/08/15 13:09:16;;;;;;;4.65;3.60;;;25.30;99.90;;;;;;5004941;28;20033;-58
2022/08/15 13:11:43;;;;;;;3.88;3.00;;;25.40;99.90;;;;;;5010923;28;20022;-56
2022/08/15 13:14:11;;;;;;;7.97;3.53;;;25.70;99.90;;;;;;5021136;28;20026;-57
2022/08/15 13:16:39;;;;;;;4.88;3.35;;;25.90;99.90;;;;;;5008142;28;20038;-56
2022/08/15 13:19:09;;;;;;;6.45;3.08;;;26.10;99.90;;;;;;5001650;28;20078;-58
2022/08/15 13:24:19;;;;;;;8.02;3.80;;;26.50;99.90;;;;;;4998626;28;20056;-57
2022/08/15 13:26:46;;;;;;;4.88;3.22;;;26.50;99.90;;;;;;5009402;28;20037;-55